Time;durP1;ratioP1;P1;durP2;ratioP2;P2;SDS_P1;SDS_P2;PMS_P1;PMS_P2;Temp;Humidity;BMP_temperature;BMP_pressure;BME280_temperature;BME280_humidity;BME280_pressure;Samples;Min_cycle;Max_cycle;Signal;HPM_P1;HPM_P2
2020/12/24 00:01:59;;;;;;;1.30;0.85;;;12.20;99.90;;;;;;5003183;28;20057;-70
2020/12/24 00:04:25;;;;;;;4.90;0.80;;;12.20;99.90;;;;;;5004987;28;20054;-70
2020/12/24 00:06:52;;;;;;;6.10;1.00;;;12.10;99.90;;;;;;5004932;28;20062;-69
2020/12/24 00:09:18;;;;;;;2.95;0.80;;;12.10;99.90;;;;;;5003045;28;20120;-70
2020/12/24 00:11:45;;;;;;;1.98;0.93;;;12.20;99.90;;;;;;5006026;28;20378;-68
2020/12/24 00:14:11;;;;;;;2.15;1.00;;;12.20;99.90;;;;;;5004790;28;20055;-69
2020/12/24 00:16:38;;;;;;;2.17;0.90;;;12.20;99.90;;;;;;5007932;28;20124;-69
2020/12/24 00:19:04;;;;;;;2.92;0.90;;;12.20;99.90;;;;;;5004975;28;20050;-68
2020/12/24 00:21:36;;;;;;;2.70;0.70;;;12.10;99.90;;;;;;5002731;28;20554;-69
2020/12/24 00:24:02;;;;;;;2.88;0.90;;;12.10;99.90;;;;;;5011279;28;20054;-70
2020/12/24 00:26:31;;;;;;;1.60;0.85;;;12.10;99.90;;;;;;5007567;28;20050;-69
2020/12/24 00:28:57;;;;;;;3.83;1.00;;;12.10;99.90;;;;;;5014471;28;20094;-68
2020/12/24 00:31:23;;;;;;;4.15;1.80;;;12.10;99.90;;;;;;5004640;28;20077;-73
2020/12/24 00:33:50;;;;;;;8.15;2.83;;;12.20;99.90;;;;;;5003070;28;20049;-71
2020/12/24 00:36:16;;;;;;;9.52;2.40;;;12.30;99.90;;;;;;5008646;28;20477;-71
2020/12/24 00:38:42;;;;;;;11.90;1.77;;;12.40;99.90;;;;;;4993408;28;20117;-74
2020/12/24 00:41:09;;;;;;;12.60;2.05;;;12.50;99.90;;;;;;4990908;28;20108;-71
2020/12/24 00:43:36;;;;;;;5.93;1.42;;;12.60;99.90;;;;;;5008022;28;20409;-70
2020/12/24 00:46:02;;;;;;;6.38;1.52;;;12.60;99.90;;;;;;4994190;28;20433;-70
2020/12/24 00:48:35;;;;;;;9.60;1.42;;;12.60;99.90;;;;;;4993253;28;20370;-69
2020/12/24 00:51:02;;;;;;;3.30;1.08;;;12.60;99.90;;;;;;4989925;28;20069;-71
2020/12/24 00:53:28;;;;;;;5.25;1.00;;;12.50;99.90;;;;;;4984878;28;20195;-69
2020/12/24 00:55:54;;;;;;;7.80;0.90;;;12.50;99.90;;;;;;5005157;28;20061;-70
2020/12/24 00:58:20;;;;;;;5.00;0.80;;;12.40;99.90;;;;;;5003049;28;20604;-70
2020/12/24 01:00:47;;;;;;;7.20;1.13;;;12.40;99.90;;;;;;5007692;28;20049;-70
2020/12/24 01:03:13;;;;;;;8.80;1.15;;;12.40;99.90;;;;;;5003491;28;20108;-70
2020/12/24 01:05:40;;;;;;;5.30;0.80;;;12.40;99.90;;;;;;4991211;28;20096;-70
2020/12/24 01:08:06;;;;;;;9.43;0.90;;;12.30;99.90;;;;;;4989280;28;20053;-70
2020/12/24 01:10:33;;;;;;;8.55;1.38;;;12.30;99.90;;;;;;5006860;28;20045;-71
2020/12/24 01:12:59;;;;;;;4.40;0.95;;;12.40;99.90;;;;;;5005578;28;20100;-70
2020/12/24 01:15:26;;;;;;;8.10;1.38;;;12.30;99.90;;;;;;5006338;28;20061;-70
2020/12/24 01:17:52;;;;;;;5.70;1.10;;;12.30;99.90;;;;;;5006395;28;20121;-70
2020/12/24 01:20:19;;;;;;;5.05;1.25;;;12.30;99.90;;;;;;5005709;28;20113;-70
2020/12/24 01:22:45;;;;;;;7.18;0.90;;;12.20;99.90;;;;;;5007623;28;20065;-70
2020/12/24 01:25:11;;;;;;;5.93;1.13;;;12.30;99.90;;;;;;5001949;28;20482;-72
2020/12/24 01:27:39;;;;;;;6.28;1.13;;;12.30;99.90;;;;;;5007312;28;20544;-71
2020/12/24 01:30:06;;;;;;;3.50;1.35;;;12.20;99.90;;;;;;5004916;28;20046;-71
2020/12/24 01:32:32;;;;;;;8.45;1.23;;;12.20;99.90;;;;;;5008204;28;20544;-71
2020/12/24 01:34:58;;;;;;;10.35;1.00;;;12.20;99.90;;;;;;5002250;28;20050;-70
2020/12/24 01:37:25;;;;;;;7.53;1.13;;;12.20;99.90;;;;;;5007333;28;20445;-71
2020/12/24 01:39:51;;;;;;;8.35;1.10;;;12.20;99.90;;;;;;4988860;28;20050;-71
2020/12/24 01:42:19;;;;;;;6.97;1.33;;;12.20;99.90;;;;;;5009365;28;20058;-68
2020/12/24 01:44:46;;;;;;;4.88;1.08;;;12.10;99.90;;;;;;5006828;28;20049;-72
2020/12/24 01:47:14;;;;;;;8.00;1.05;;;12.10;99.80;;;;;;4994070;28;20100;-71
2020/12/24 01:49:41;;;;;;;4.97;0.90;;;12.20;99.90;;;;;;5005461;28;20042;-70
2020/12/24 01:52:18;;;;;;;10.90;1.58;;;12.10;99.90;;;;;;5003288;28;20053;-70
2020/12/24 01:54:45;;;;;;;8.63;1.02;;;12.10;99.10;;;;;;5003002;28;20074;-70
2020/12/24 01:57:11;;;;;;;7.80;1.15;;;12.10;98.70;;;;;;4999919;28;20119;-70
2020/12/24 01:59:39;;;;;;;3.45;0.90;;;12.10;99.30;;;;;;5008254;28;20050;-71
2020/12/24 02:02:05;;;;;;;4.10;1.08;;;12.00;98.90;;;;;;5006860;28;20058;-72
2020/12/24 02:04:34;;;;;;;4.53;0.85;;;12.00;98.50;;;;;;4998610;28;20355;-69
2020/12/24 02:07:00;;;;;;;2.67;0.73;;;11.90;97.90;;;;;;5003064;28;20046;-70
2020/12/24 02:09:27;;;;;;;7.43;1.38;;;12.00;97.70;;;;;;5001572;28;20049;-70
2020/12/24 02:11:53;;;;;;;4.95;1.00;;;11.90;97.90;;;;;;5009598;28;20103;-70
2020/12/24 02:14:19;;;;;;;7.00;1.05;;;11.90;98.00;;;;;;5005801;28;20453;-70
2020/12/24 02:16:46;;;;;;;3.67;0.73;;;11.80;97.40;;;;;;5001252;28;20050;-70
2020/12/24 02:19:12;;;;;;;5.00;0.68;;;11.80;97.00;;;;;;5000914;28;20066;-69
2020/12/24 02:21:39;;;;;;;4.80;0.68;;;11.80;97.10;;;;;;5006934;28;20053;-69
2020/12/24 02:24:05;;;;;;;5.25;0.57;;;11.70;96.00;;;;;;5002722;28;20046;-71
2020/12/24 02:26:32;;;;;;;3.40;0.90;;;11.70;94.70;;;;;;5003471;28;20092;-70
2020/12/24 02:28:58;;;;;;;2.45;0.60;;;11.70;93.90;;;;;;4998240;28;20042;-71
2020/12/24 02:31:24;;;;;;;6.25;0.82;;;11.70;93.40;;;;;;5006998;28;20175;-69
2020/12/24 02:33:51;;;;;;;5.82;1.05;;;11.60;92.90;;;;;;4999566;28;20046;-70
2020/12/24 02:36:17;;;;;;;6.38;0.98;;;11.60;93.30;;;;;;5001636;28;20062;-70
2020/12/24 02:38:44;;;;;;;8.50;1.08;;;11.50;93.30;;;;;;5001833;28;20053;-70
2020/12/24 02:41:11;;;;;;;4.03;0.60;;;11.60;93.40;;;;;;5008357;28;20512;-70
2020/12/24 02:43:37;;;;;;;4.63;0.70;;;11.50;93.60;;;;;;4992410;28;20481;-69
2020/12/24 02:46:04;;;;;;;14.85;1.27;;;11.50;93.60;;;;;;5008656;28;20057;-69
2020/12/24 02:48:31;;;;;;;9.70;1.73;;;11.40;93.80;;;;;;5004342;28;20050;-70
2020/12/24 02:50:57;;;;;;;8.27;1.38;;;11.40;93.70;;;;;;4996698;28;20393;-70
2020/12/24 02:53:23;;;;;;;7.30;0.90;;;11.40;93.50;;;;;;5005904;28;20450;-71
2020/12/24 02:55:50;;;;;;;4.22;0.82;;;11.30;93.60;;;;;;5003166;28;20048;-70
2020/12/24 02:58:16;;;;;;;5.10;1.20;;;11.40;93.60;;;;;;5006184;28;20054;-69
2020/12/24 03:00:42;;;;;;;4.53;0.85;;;11.30;93.70;;;;;;5005293;28;20119;-70
2020/12/24 03:03:08;;;;;;;6.43;1.17;;;11.30;93.10;;;;;;5001156;28;20054;-69
2020/12/24 03:05:36;;;;;;;6.70;1.10;;;11.20;93.20;;;;;;5007854;28;20547;-70
2020/12/24 03:08:02;;;;;;;4.75;1.02;;;11.20;93.30;;;;;;5005578;28;20050;-70
2020/12/24 03:10:28;;;;;;;5.78;0.90;;;11.20;93.50;;;;;;5006366;28;20677;-71
2020/12/24 03:12:55;;;;;;;7.78;1.30;;;11.20;93.20;;;;;;5002049;28;20050;-71
2020/12/24 03:15:21;;;;;;;9.95;1.00;;;11.10;93.50;;;;;;4984860;28;20540;-68
2020/12/24 03:17:47;;;;;;;7.45;1.50;;;11.10;93.50;;;;;;5003397;28;20058;-69
2020/12/24 03:20:16;;;;;;;8.65;1.17;;;11.10;93.40;;;;;;5003663;28;20132;-70
2020/12/24 03:23:02;;;;;;;2.17;0.47;;;11.10;93.40;;;;;;4999730;28;20044;-70
2020/12/24 03:25:46;;;;;;;9.60;1.20;;;11.10;93.30;;;;;;5000911;28;20057;-69
2020/12/24 03:28:12;;;;;;;5.82;1.10;;;11.10;93.50;;;;;;5000086;28;20902;-69
2020/12/24 03:30:39;;;;;;;4.78;1.00;;;11.00;93.80;;;;;;4989703;28;20418;-70
2020/12/24 03:33:05;;;;;;;8.02;1.42;;;11.00;94.00;;;;;;5006022;28;20065;-70
2020/12/24 03:35:32;;;;;;;6.32;1.05;;;11.00;94.20;;;;;;5004543;28;20463;-72
2020/12/24 03:37:58;;;;;;;4.82;0.93;;;10.90;94.50;;;;;;5011851;28;20100;-71
2020/12/24 03:40:24;;;;;;;7.22;1.08;;;10.90;95.00;;;;;;4994566;28;20171;-70
2020/12/24 03:42:50;;;;;;;5.47;0.93;;;10.90;95.20;;;;;;5005826;28;20481;-71
2020/12/24 03:45:17;;;;;;;5.28;1.00;;;10.80;95.40;;;;;;5004494;28;20489;-70
2020/12/24 03:47:43;;;;;;;6.35;0.85;;;10.80;95.90;;;;;;5000471;28;20116;-71
2020/12/24 03:50:10;;;;;;;5.60;0.80;;;10.70;96.00;;;;;;5008399;28;20042;-70
2020/12/24 03:52:36;;;;;;;3.90;0.60;;;10.70;96.00;;;;;;5009275;28;20037;-70
2020/12/24 03:55:03;;;;;;;5.65;1.00;;;10.80;94.50;;;;;;4994736;28;20375;-71
2020/12/24 03:57:29;;;;;;;6.75;1.55;;;10.80;95.00;;;;;;5006946;28;20486;-69
2020/12/24 03:59:55;;;;;;;7.78;1.00;;;10.70;94.50;;;;;;5000695;28;20042;-71
2020/12/24 04:02:22;;;;;;;8.20;1.27;;;10.70;94.60;;;;;;5004199;28;20489;-72
2020/12/24 04:04:48;;;;;;;6.80;1.00;;;10.70;95.10;;;;;;5008465;28;20111;-70
2020/12/24 04:07:14;;;;;;;3.33;1.08;;;10.70;94.70;;;;;;5008262;28;20045;-70
2020/12/24 04:09:41;;;;;;;5.65;1.00;;;10.70;94.80;;;;;;5010585;28;20054;-69
2020/12/24 04:12:07;;;;;;;9.77;1.10;;;10.70;94.70;;;;;;5010247;28;20148;-69
2020/12/24 04:14:33;;;;;;;9.70;1.17;;;10.60;94.90;;;;;;5011945;28;20054;-69
2020/12/24 04:17:00;;;;;;;12.75;1.10;;;10.60;94.60;;;;;;5005969;28;20440;-69
2020/12/24 04:19:26;;;;;;;3.20;0.93;;;10.70;94.60;;;;;;5010925;28;20057;-69
2020/12/24 04:21:52;;;;;;;7.88;1.00;;;10.70;94.20;;;;;;5007144;28;20053;-69
2020/12/24 04:24:19;;;;;;;4.60;0.95;;;10.70;94.00;;;;;;5008026;28;20132;-69
2020/12/24 04:26:45;;;;;;;4.35;0.85;;;10.80;92.60;;;;;;5006802;28;20066;-69
2020/12/24 04:29:11;;;;;;;6.40;1.00;;;10.80;92.60;;;;;;5010827;28;20050;-69
2020/12/24 04:31:43;;;;;;;7.15;1.10;;;10.70;92.90;;;;;;5005957;28;20584;-69
2020/12/24 04:34:10;;;;;;;4.53;0.80;;;10.60;93.30;;;;;;5009068;28;20046;-69
2020/12/24 04:36:37;;;;;;;5.88;1.05;;;10.60;94.10;;;;;;5009835;28;20073;-69
2020/12/24 04:39:04;;;;;;;4.80;1.02;;;10.50;95.00;;;;;;4996037;28;20473;-68
2020/12/24 04:41:32;;;;;;;4.50;0.90;;;10.50;95.20;;;;;;4998860;28;20046;-69
2020/12/24 04:44:01;;;;;;;7.35;1.08;;;10.40;95.60;;;;;;5013291;28;20050;-69
2020/12/24 04:46:28;;;;;;;4.43;0.70;;;10.40;96.10;;;;;;4986477;28;20096;-70
2020/12/24 04:48:58;;;;;;;2.40;0.82;;;10.40;96.30;;;;;;5009576;28;20073;-70
2020/12/24 04:51:25;;;;;;;8.77;1.33;;;10.30;96.70;;;;;;5009404;28;20092;-70
2020/12/24 04:53:52;;;;;;;4.07;1.23;;;10.30;97.20;;;;;;5000162;28;20058;-69
2020/12/24 04:56:19;;;;;;;4.65;1.00;;;10.40;96.80;;;;;;5006950;28;20101;-69
2020/12/24 04:58:46;;;;;;;4.47;0.98;;;10.30;96.90;;;;;;4995827;28;20477;-69
2020/12/24 05:01:16;;;;;;;3.63;0.70;;;10.20;96.90;;;;;;5009233;28;20054;-69
2020/12/24 05:03:43;;;;;;;5.63;0.80;;;10.20;96.90;;;;;;5006586;28;20112;-69
2020/12/24 05:06:17;;;;;;;7.35;1.10;;;10.20;97.40;;;;;;5008805;28;20050;-69
2020/12/24 05:08:51;;;;;;;7.28;1.00;;;10.20;97.00;;;;;;5008997;28;20058;-69
2020/12/24 05:11:28;;;;;;;7.10;1.00;;;10.20;97.50;;;;;;5012280;28;20049;-69
2020/12/24 05:14:18;;;;;;;7.68;0.98;;;10.30;97.60;;;;;;5008209;28;20046;-69
2020/12/24 05:17:05;;;;;;;6.07;0.80;;;10.40;98.10;;;;;;4989120;28;20077;-69
2020/12/24 05:19:47;;;;;;;4.22;0.90;;;10.20;97.40;;;;;;5004130;28;20061;-69
2020/12/24 05:22:16;;;;;;;8.43;1.02;;;10.30;97.50;;;;;;5010566;28;20097;-69
2020/12/24 05:24:42;;;;;;;9.88;1.17;;;10.40;97.40;;;;;;5005393;28;20062;-68
2020/12/24 05:27:20;;;;;;;6.03;1.40;;;10.30;97.80;;;;;;5004718;28;20143;-69
2020/12/24 05:29:51;;;;;;;6.35;1.13;;;10.30;97.20;;;;;;5006764;28;20046;-69
2020/12/24 05:32:32;;;;;;;7.05;1.00;;;10.50;97.30;;;;;;5003620;28;20109;-69
2020/12/24 05:35:05;;;;;;;;;;;10.40;97.50;;;;;;5009234;28;20046;-70
2020/12/24 05:37:32;;;;;;;5.68;1.00;;;10.30;98.00;;;;;;5007693;28;19925;-68
2020/12/24 05:40:15;;;;;;;9.00;1.13;;;10.40;98.20;;;;;;5006192;28;20054;-69
2020/12/24 05:42:58;;;;;;;7.13;1.15;;;10.40;98.30;;;;;;5008437;28;20065;-69
2020/12/24 05:45:27;;;;;;;8.35;1.60;;;10.30;99.00;;;;;;5003039;28;20058;-69
2020/12/24 05:48:11;;;;;;;10.50;0.90;;;10.30;99.80;;;;;;5008859;28;20457;-70
2020/12/24 05:50:39;;;;;;;7.20;1.15;;;10.40;99.90;;;;;;5008235;28;20085;-70
2020/12/24 05:53:13;;;;;;;5.40;1.17;;;10.40;99.70;;;;;;5004560;28;20184;-70
2020/12/24 05:55:41;;;;;;;5.72;1.50;;;10.40;99.90;;;;;;5005569;28;20078;-70
2020/12/24 05:58:08;;;;;;;6.15;1.50;;;10.30;99.90;;;;;;5007451;28;20473;-71
2020/12/24 06:00:39;;;;;;;8.48;1.38;;;10.30;99.90;;;;;;5004615;28;20621;-71
2020/12/24 06:03:19;;;;;;;9.85;1.77;;;10.30;99.90;;;;;;4990185;28;20053;-70
2020/12/24 06:05:49;;;;;;;10.02;1.48;;;10.40;99.90;;;;;;5009093;28;20049;-70
2020/12/24 06:08:44;;;;;;;7.07;1.42;;;10.40;99.90;;;;;;5008066;28;20046;-69
2020/12/24 06:11:10;;;;;;;8.07;1.10;;;10.30;99.90;;;;;;5002850;28;20120;-69
2020/12/24 06:13:44;;;;;;;3.53;0.90;;;10.20;99.90;;;;;;5006679;28;20507;-70
2020/12/24 06:16:14;;;;;;;5.55;1.02;;;10.10;99.90;;;;;;5007329;28;20101;-70
2020/12/24 06:18:43;;;;;;;4.82;0.95;;;10.20;99.90;;;;;;5006488;28;20531;-70
2020/12/24 06:21:17;;;;;;;3.60;0.75;;;10.10;99.90;;;;;;5004987;28;20480;-70
2020/12/24 06:23:52;;;;;;;4.95;0.80;;;10.10;99.90;;;;;;4990209;28;20108;-70
2020/12/24 06:26:26;;;;;;;2.15;0.50;;;10.10;99.90;;;;;;5002148;28;20054;-69
2020/12/24 06:28:58;;;;;;;4.03;0.90;;;9.90;99.90;;;;;;5005143;28;20107;-70
2020/12/24 06:31:25;;;;;;;6.13;0.85;;;9.60;99.90;;;;;;5003309;28;20046;-70
2020/12/24 06:33:52;;;;;;;1.73;0.77;;;9.70;99.90;;;;;;5003228;28;20093;-70
2020/12/24 06:36:36;;;;;;;5.53;0.77;;;9.60;99.90;;;;;;4994829;28;20054;-70
2020/12/24 06:39:05;;;;;;;9.43;1.10;;;9.40;99.90;;;;;;5007308;28;20523;-72
2020/12/24 06:41:41;;;;;;;4.82;0.88;;;9.30;99.90;;;;;;4999230;28;20474;-70
2020/12/24 06:44:10;;;;;;;5.65;0.63;;;9.20;99.90;;;;;;5005774;28;20046;-70
2020/12/24 06:46:59;;;;;;;4.88;0.60;;;9.10;99.90;;;;;;4995458;28;20552;-70
2020/12/24 06:49:30;;;;;;;3.03;0.70;;;9.00;99.90;;;;;;4991557;28;20436;-69
2020/12/24 06:51:56;;;;;;;3.28;0.60;;;9.10;99.90;;;;;;5007581;28;20532;-70
2020/12/24 06:54:27;;;;;;;5.38;0.63;;;9.30;99.90;;;;;;5003852;28;20041;-71
2020/12/24 06:57:21;;;;;;;5.22;0.90;;;9.20;99.90;;;;;;5007965;28;20481;-70
2020/12/24 06:59:49;;;;;;;3.40;0.80;;;9.10;99.90;;;;;;4999507;28;20057;-71
2020/12/24 07:02:24;;;;;;;3.00;0.60;;;8.90;99.90;;;;;;5007284;28;20050;-70
2020/12/24 07:04:51;;;;;;;5.80;0.70;;;9.10;99.90;;;;;;5005239;28;20112;-70
2020/12/24 07:07:41;;;;;;;6.75;0.90;;;8.90;99.90;;;;;;5004678;28;20202;-72
2020/12/24 07:10:07;;;;;;;3.05;0.98;;;8.80;99.90;;;;;;5006852;28;20046;-69
2020/12/24 07:12:35;;;;;;;2.85;0.90;;;8.90;99.90;;;;;;5009398;28;20465;-70
2020/12/24 07:15:20;;;;;;;4.50;0.70;;;9.00;99.90;;;;;;4996571;28;20424;-69
2020/12/24 07:17:47;;;;;;;3.22;0.57;;;8.90;99.90;;;;;;5007330;28;20142;-69
2020/12/24 07:20:17;;;;;;;4.15;0.88;;;9.10;99.90;;;;;;5007146;28;20053;-69
2020/12/24 07:22:53;;;;;;;3.25;0.70;;;9.00;99.90;;;;;;5001738;28;20068;-69
2020/12/24 07:25:20;;;;;;;2.92;0.65;;;9.00;99.90;;;;;;5008787;28;20068;-69
2020/12/24 07:27:48;;;;;;;5.68;0.77;;;9.00;99.90;;;;;;5011680;28;20541;-70
2020/12/24 07:30:15;;;;;;;6.30;0.80;;;9.00;99.90;;;;;;5012296;28;20108;-69
2020/12/24 07:32:41;;;;;;;4.45;0.90;;;9.00;99.90;;;;;;5010280;28;20041;-70
2020/12/24 07:35:15;;;;;;;4.00;0.82;;;9.10;99.90;;;;;;5012985;28;20461;-70
2020/12/24 07:37:42;;;;;;;3.33;0.93;;;9.20;99.90;;;;;;5014616;28;20568;-69
2020/12/24 07:40:10;;;;;;;4.40;0.90;;;9.20;99.90;;;;;;5008067;28;20101;-70
2020/12/24 07:42:36;;;;;;;2.40;0.80;;;9.30;99.90;;;;;;4999936;28;20436;-69
2020/12/24 07:45:03;;;;;;;4.88;1.00;;;9.30;99.90;;;;;;5007084;28;20058;-70
2020/12/24 07:47:29;;;;;;;19.77;1.05;;;9.20;99.90;;;;;;5010799;28;20065;-69
2020/12/24 07:49:56;;;;;;;3.55;0.82;;;9.10;99.90;;;;;;5010238;28;20541;-69
2020/12/24 07:52:22;;;;;;;4.97;0.65;;;9.10;99.90;;;;;;5009730;28;20053;-69
2020/12/24 07:54:49;;;;;;;3.70;0.90;;;8.70;99.90;;;;;;5010588;28;20050;-69
2020/12/24 07:57:22;;;;;;;3.63;0.77;;;8.90;99.90;;;;;;5013267;28;20058;-69
2020/12/24 07:59:58;;;;;;;6.07;1.10;;;8.80;99.90;;;;;;5007941;28;20046;-68
2020/12/24 08:02:24;;;;;;;3.65;0.57;;;9.00;99.90;;;;;;5005576;28;20084;-69
2020/12/24 08:04:55;;;;;;;4.78;1.00;;;9.10;99.90;;;;;;4994280;28;20053;-69
2020/12/24 08:07:22;;;;;;;4.75;1.13;;;9.10;99.90;;;;;;5008593;28;20049;-69
2020/12/24 08:09:49;;;;;;;7.07;1.20;;;8.90;99.90;;;;;;5006657;28;20053;-69
2020/12/24 08:12:23;;;;;;;11.88;1.20;;;9.10;99.90;;;;;;5007934;28;20050;-68
2020/12/24 08:14:50;;;;;;;4.28;0.85;;;9.10;99.90;;;;;;4994045;28;20045;-69
2020/12/24 08:17:41;;;;;;;6.53;1.00;;;9.30;99.90;;;;;;5011551;28;20057;-69
2020/12/24 08:20:09;;;;;;;4.22;0.80;;;9.10;99.90;;;;;;5005756;28;20481;-68
2020/12/24 08:23:02;;;;;;;5.72;1.35;;;9.00;99.90;;;;;;5010849;28;20104;-69
2020/12/24 08:25:29;;;;;;;3.17;0.70;;;8.90;99.90;;;;;;5002774;28;20187;-68
2020/12/24 08:27:57;;;;;;;4.60;1.25;;;9.00;99.90;;;;;;4989310;28;20465;-68
2020/12/24 08:30:28;;;;;;;3.05;0.80;;;9.00;99.90;;;;;;5007644;28;20046;-70
2020/12/24 08:32:56;;;;;;;3.25;1.00;;;9.00;99.90;;;;;;5009816;28;20053;-69
2020/12/24 08:35:22;;;;;;;5.68;1.00;;;9.00;99.90;;;;;;5007756;28;20160;-69
2020/12/24 08:37:48;;;;;;;5.15;1.00;;;9.00;99.90;;;;;;4990336;28;20100;-68
2020/12/24 08:40:21;;;;;;;6.05;1.00;;;9.00;99.90;;;;;;5005333;28;20050;-68
2020/12/24 08:42:48;;;;;;;3.63;1.08;;;9.10;99.90;;;;;;4998697;28;20046;-68
2020/12/24 08:45:15;;;;;;;6.40;1.20;;;9.00;99.90;;;;;;5003723;28;20481;-68
2020/12/24 08:47:41;;;;;;;3.03;0.90;;;9.20;99.90;;;;;;4992074;28;20451;-69
2020/12/24 08:50:08;;;;;;;4.93;1.20;;;9.10;99.90;;;;;;5013557;28;20045;-69
2020/12/24 08:52:37;;;;;;;5.35;1.15;;;9.10;99.90;;;;;;4990890;28;20054;-68
2020/12/24 08:55:08;;;;;;;6.07;1.20;;;9.10;99.90;;;;;;5005600;28;20085;-68
2020/12/24 08:57:36;;;;;;;2.08;0.82;;;9.10;99.90;;;;;;5012020;28;20096;-68
2020/12/24 09:00:12;;;;;;;3.40;0.93;;;9.00;99.90;;;;;;5006753;28;20242;-70
2020/12/24 09:02:39;;;;;;;5.38;1.08;;;9.00;99.90;;;;;;4988791;28;20469;-69
2020/12/24 09:05:06;;;;;;;3.35;1.15;;;9.30;99.90;;;;;;5007811;28;20754;-70
2020/12/24 09:07:42;;;;;;;5.15;1.17;;;9.20;99.90;;;;;;4999512;28;20091;-69
2020/12/24 09:10:10;;;;;;;5.05;1.02;;;9.40;99.90;;;;;;4987009;28;20181;-69
2020/12/24 09:12:41;;;;;;;3.50;1.00;;;9.40;99.90;;;;;;4990088;28;20477;-69
2020/12/24 09:15:11;;;;;;;2.65;0.80;;;9.40;99.90;;;;;;4991579;28;20557;-72
2020/12/24 09:17:48;;;;;;;5.20;0.95;;;9.40;99.90;;;;;;4987584;28;20053;-70
2020/12/24 09:20:24;;;;;;;2.60;0.90;;;9.50;99.90;;;;;;4978930;28;20051;-69
2020/12/24 09:22:58;;;;;;;8.45;1.25;;;9.50;99.90;;;;;;4989615;28;20450;-69
2020/12/24 09:25:33;;;;;;;3.03;1.08;;;9.60;99.90;;;;;;4988438;28;20046;-69
2020/12/24 09:28:01;;;;;;;5.28;1.00;;;9.50;99.90;;;;;;4987002;28;20116;-69
2020/12/24 09:30:27;;;;;;;5.25;0.95;;;9.60;99.90;;;;;;4988955;28;20474;-70
2020/12/24 09:32:59;;;;;;;3.50;0.85;;;9.60;99.90;;;;;;4988914;28;20057;-73
2020/12/24 09:35:27;;;;;;;2.72;0.60;;;9.70;99.90;;;;;;4984670;28;20099;-73
2020/12/24 09:37:55;;;;;;;2.50;0.60;;;9.60;99.90;;;;;;4985972;28;20045;-75
2020/12/24 09:40:23;;;;;;;2.90;0.90;;;9.60;99.90;;;;;;4989591;28;20878;-83
2020/12/24 09:42:50;;;;;;;3.08;0.70;;;9.60;99.90;;;;;;4978852;28;20449;-75
2020/12/24 09:45:17;;;;;;;2.50;0.93;;;9.60;99.90;;;;;;4990353;28;20629;-81
2020/12/24 09:47:46;;;;;;;2.58;0.73;;;9.70;99.90;;;;;;4976755;28;20115;-80
2020/12/24 09:50:14;;;;;;;3.35;1.33;;;9.70;99.90;;;;;;4976717;28;20058;-77
2020/12/24 09:52:40;;;;;;;4.75;1.00;;;9.80;99.90;;;;;;4977748;28;20046;-75
2020/12/24 09:55:07;;;;;;;1.35;0.60;;;9.80;99.90;;;;;;4971737;28;20053;-74
2020/12/24 09:57:35;;;;;;;2.55;0.70;;;9.70;99.90;;;;;;4971080;28;20104;-74
2020/12/24 10:00:05;;;;;;;3.15;0.57;;;9.50;99.90;;;;;;4987920;28;20073;-75
2020/12/24 10:02:32;;;;;;;2.45;0.65;;;9.30;99.90;;;;;;4971702;28;20054;-76
2020/12/24 10:04:59;;;;;;;4.20;0.75;;;9.10;99.90;;;;;;4989120;28;20460;-75
2020/12/24 10:07:25;;;;;;;2.15;0.60;;;9.00;99.90;;;;;;4988265;28;20050;-76
2020/12/24 10:09:54;;;;;;;2.17;0.60;;;9.10;99.90;;;;;;4991126;28;20814;-76
2020/12/24 10:12:25;;;;;;;2.40;0.70;;;9.20;99.90;;;;;;4973500;28;20536;-76
2020/12/24 10:14:55;;;;;;;6.28;0.60;;;9.20;99.90;;;;;;4989624;28;20054;-77
2020/12/24 10:17:22;;;;;;;;;;;9.20;99.90;;;;;;4972014;28;20489;-76
2020/12/24 10:19:51;;;;;;;0.52;0.40;;;9.50;99.90;;;;;;4990025;28;21067;-76
2020/12/24 10:22:21;;;;;;;1.83;0.47;;;9.50;99.90;;;;;;4981463;28;20064;-77
2020/12/24 10:24:51;;;;;;;1.92;0.43;;;9.60;99.90;;;;;;4990479;28;20052;-76
2020/12/24 10:27:18;;;;;;;0.90;0.50;;;9.80;99.90;;;;;;4989353;28;20145;-76
2020/12/24 10:29:44;;;;;;;2.58;0.85;;;9.80;99.90;;;;;;4979574;28;20539;-76
2020/12/24 10:32:11;;;;;;;1.38;0.60;;;9.80;99.90;;;;;;4990092;28;20410;-75
2020/12/24 10:34:37;;;;;;;1.45;0.57;;;9.70;99.90;;;;;;4989473;28;20124;-75
2020/12/24 10:37:04;;;;;;;1.98;0.40;;;9.90;99.90;;;;;;4988138;28;20069;-78
2020/12/24 10:39:31;;;;;;;0.85;0.40;;;10.00;99.90;;;;;;4986834;28;20667;-76
2020/12/24 10:41:58;;;;;;;2.67;0.35;;;10.00;99.90;;;;;;4987917;28;20050;-74
2020/12/24 10:44:25;;;;;;;0.93;0.35;;;10.00;99.90;;;;;;4982642;28;20054;-73
2020/12/24 10:46:55;;;;;;;0.80;0.40;;;10.00;99.90;;;;;;4993068;28;20046;-73
2020/12/24 10:49:22;;;;;;;0.93;0.45;;;10.10;99.90;;;;;;4983949;28;20070;-74
2020/12/24 10:51:48;;;;;;;0.93;0.55;;;10.00;99.90;;;;;;4993325;28;20050;-74
2020/12/24 10:54:15;;;;;;;1.05;0.40;;;9.90;99.90;;;;;;4995284;28;20106;-73
2020/12/24 10:56:48;;;;;;;10.50;4.75;;;10.00;99.90;;;;;;4975436;28;20103;-75
2020/12/24 10:59:16;;;;;;;2.42;1.25;;;10.20;99.90;;;;;;4994459;28;20413;-77
2020/12/24 11:01:49;;;;;;;2.00;1.00;;;10.30;99.90;;;;;;4990980;28;20784;-78
2020/12/24 11:04:16;;;;;;;3.58;2.00;;;10.50;99.90;;;;;;4982036;28;20808;-77
2020/12/24 11:06:44;;;;;;;1.25;0.75;;;10.40;99.90;;;;;;4989672;28;20465;-78
2020/12/24 11:09:11;;;;;;;2.58;0.93;;;10.40;99.90;;;;;;5002806;28;20393;-78
2020/12/24 11:11:38;;;;;;;1.00;0.60;;;10.40;99.90;;;;;;4991351;28;20445;-78
2020/12/24 11:14:05;;;;;;;2.05;0.60;;;10.60;99.90;;;;;;4999233;28;20523;-76
2020/12/24 11:16:32;;;;;;;2.60;0.90;;;10.60;99.90;;;;;;4994710;28;20104;-76
2020/12/24 11:18:58;;;;;;;1.20;0.50;;;10.60;99.90;;;;;;5010104;28;20096;-75
2020/12/24 11:21:29;;;;;;;1.40;0.70;;;10.50;99.90;;;;;;5008017;28;20053;-79
2020/12/24 11:23:55;;;;;;;3.67;0.60;;;10.50;99.90;;;;;;4995734;28;20062;-82
2020/12/24 11:26:22;;;;;;;0.98;0.40;;;10.60;99.90;;;;;;4990993;28;20073;-78
2020/12/24 11:28:49;;;;;;;0.82;0.40;;;10.60;99.90;;;;;;5009686;28;20196;-81
2020/12/24 11:31:25;;;;;;;0.50;0.40;;;10.70;99.90;;;;;;5008461;28;20046;-81
2020/12/24 11:33:52;;;;;;;0.63;0.40;;;10.60;99.90;;;;;;5004060;28;20053;-77
2020/12/24 11:36:19;;;;;;;0.75;0.50;;;10.50;99.90;;;;;;5004296;28;20058;-81
2020/12/24 11:38:47;;;;;;;0.60;0.40;;;10.60;99.90;;;;;;5007024;28;20128;-79
2020/12/24 11:41:20;;;;;;;1.02;0.40;;;10.60;99.90;;;;;;4991681;28;20085;-77
2020/12/24 11:43:47;;;;;;;0.80;0.50;;;10.50;99.90;;;;;;5003832;28;20051;-79
2020/12/24 11:46:15;;;;;;;0.50;0.50;;;10.50;99.90;;;;;;5003899;28;20057;-79
2020/12/24 11:48:42;;;;;;;0.73;0.50;;;10.50;99.90;;;;;;5005837;28;20107;-77
2020/12/24 11:51:10;;;;;;;0.40;0.40;;;10.50;99.90;;;;;;5011575;28;20065;-77
2020/12/24 11:53:38;;;;;;;1.65;0.50;;;10.50;99.90;;;;;;5009801;28;20435;-82
2020/12/24 11:56:04;;;;;;;0.50;0.40;;;10.50;99.90;;;;;;4992236;28;20504;-72
2020/12/24 11:58:31;;;;;;;1.17;0.40;;;10.50;99.90;;;;;;5010168;28;20068;-73
2020/12/24 12:00:58;;;;;;;0.75;0.43;;;10.50;99.90;;;;;;4976854;28;20124;-75
2020/12/24 12:03:25;;;;;;;0.65;0.40;;;10.50;99.90;;;;;;4994942;28;20193;-77
2020/12/24 12:05:51;;;;;;;0.70;0.50;;;10.60;99.90;;;;;;5010880;28;20054;-75
2020/12/24 12:08:18;;;;;;;1.85;0.45;;;10.50;99.90;;;;;;5012425;28;20502;-77
2020/12/24 12:10:44;;;;;;;1.95;0.35;;;10.50;99.90;;;;;;5000343;28;20046;-75
2020/12/24 12:13:11;;;;;;;1.55;0.50;;;10.50;99.90;;;;;;4990826;28;20046;-74
2020/12/24 12:15:37;;;;;;;3.30;0.50;;;10.60;99.90;;;;;;5010604;28;20038;-76
2020/12/24 12:18:06;;;;;;;0.28;0.28;;;10.50;99.90;;;;;;5013954;28;20046;-73
2020/12/24 12:20:33;;;;;;;0.93;0.50;;;10.60;99.90;;;;;;4996127;28;20050;-74
2020/12/24 12:23:01;;;;;;;1.75;0.50;;;10.60;99.90;;;;;;5011074;28;20042;-74
2020/12/24 12:25:28;;;;;;;0.60;0.50;;;10.60;99.90;;;;;;5009536;28;20126;-75
2020/12/24 12:27:54;;;;;;;0.77;0.55;;;10.70;99.90;;;;;;5012011;28;20050;-75
2020/12/24 12:30:20;;;;;;;0.60;0.50;;;10.70;99.90;;;;;;5007815;28;20089;-74
2020/12/24 12:32:47;;;;;;;1.23;0.65;;;10.70;99.90;;;;;;5009899;28;20054;-74
2020/12/24 12:35:13;;;;;;;1.65;0.70;;;10.70;99.90;;;;;;5013637;28;20061;-75
2020/12/24 12:37:39;;;;;;;0.60;0.47;;;10.80;99.90;;;;;;4992440;28;20087;-74
2020/12/24 12:40:07;;;;;;;1.27;0.60;;;10.80;99.90;;;;;;5006587;28;20468;-75
2020/12/24 12:42:33;;;;;;;0.70;0.50;;;10.80;99.90;;;;;;4993965;28;20456;-75
2020/12/24 12:45:00;;;;;;;1.98;0.50;;;10.90;99.90;;;;;;5005744;28;20050;-75
2020/12/24 12:47:27;;;;;;;3.65;0.73;;;10.80;99.90;;;;;;4995137;28;20046;-74
2020/12/24 12:49:54;;;;;;;2.10;1.38;;;10.80;99.90;;;;;;5010241;28;20100;-76
2020/12/24 12:52:21;;;;;;;1.15;0.75;;;10.90;99.90;;;;;;5009081;28;20536;-75
2020/12/24 12:54:47;;;;;;;2.47;0.70;;;10.90;99.90;;;;;;5011105;28;20080;-75
2020/12/24 12:57:19;;;;;;;0.73;0.30;;;10.70;99.90;;;;;;4993603;28;20108;-75
2020/12/24 12:59:45;;;;;;;1.58;0.95;;;10.60;99.90;;;;;;5011900;28;20054;-75